EGNT METAR and TAF | Updated Today

EGNT METAR

Newcastle Airport

Observation time: 4 min. ago

EGNT 062020Z 20004KT 180V240 9999 SCT033 05/02 Q1036

Need help? Read our tutorial on how to read METARs or read the parsed version below.

Newcastle Airport (EGNT) METAR

  • Weather conditions on Mon, 06 Feb 2023 20:20:00 +0000 (4 min. ago):
  • Present conditions: Dry
  • Clouds: Scattered at 1006 meters
  • Visibility: Greater than 10 km
  • Wind: 200 degrees at 4 knots
  • Temperature: 5 celsius
  • Dew point: 2 celsius
  • Pressure: 1036 millibars
  • Remarks: None


Useful to know...

EGNT TAF

Newcastle Airport

TAF EGNT 061655Z 0618/0718 27008KT 9999 SCT030
Observation time: 3:29 hr. ago
Need help? Read our tutorial on how to read TAFs or read the parsed version below.

Parsed version of TAF for Newcastle Airport (EGNT)

  • From 06 February at 18:00 UTC, to day 07 of the month at 18:00 UTC
  • Clouds: Scattered at 914 meters
  • Visibility: Greater than 10 km
  • Wind: 270 degrees at 8